createdAt,value
2019-06-27T00:00:14.876Z,10.65
2019-06-27T00:02:43.967Z,9.43
2019-06-27T00:05:13.077Z,9.68
2019-06-27T00:07:41.512Z,10.10
2019-06-27T00:10:11.761Z,10.05
2019-06-27T00:12:40.795Z,10.78
2019-06-27T00:15:09.920Z,10.50
2019-06-27T00:17:38.936Z,10.15
2019-06-27T00:20:08.306Z,10.10
2019-06-27T00:22:40.239Z,10.23
2019-06-27T00:25:07.558Z,10.15
2019-06-27T00:27:36.576Z,10.13
2019-06-27T00:30:09.234Z,10.20
2019-06-27T00:32:38.324Z,10.03
2019-06-27T00:35:07.692Z,10.38
2019-06-27T00:37:36.164Z,11.10
2019-06-27T00:40:06.989Z,10.65
2019-06-27T00:42:36.066Z,10.58
2019-06-27T00:45:06.747Z,11.40
2019-06-27T00:47:35.794Z,11.53
2019-06-27T00:50:07.536Z,10.75
2019-06-27T00:52:36.647Z,11.48
2019-06-27T00:55:07.105Z,11.97
2019-06-27T00:57:36.009Z,12.43
2019-06-27T01:00:07.224Z,12.20
2019-06-27T01:02:36.392Z,11.25
2019-06-27T01:05:07.060Z,12.73
2019-06-27T01:07:36.088Z,12.82
2019-06-27T01:10:07.254Z,13.55
2019-06-27T01:12:36.283Z,13.03
2019-06-27T01:15:06.662Z,14.13
2019-06-27T01:17:35.703Z,13.13
2019-06-27T01:20:05.751Z,13.20
2019-06-27T01:22:34.860Z,13.40
2019-06-27T01:25:04.574Z,13.25
2019-06-27T01:27:33.664Z,12.90
2019-06-27T01:30:02.112Z,12.70
2019-06-27T01:32:31.185Z,13.03
2019-06-27T01:35:03.977Z,13.75
2019-06-27T01:37:30.975Z,14.75
2019-06-27T01:39:59.999Z,14.73
2019-06-27T01:42:29.116Z,14.40
2019-06-27T01:44:59.188Z,14.98
2019-06-27T01:47:28.216Z,13.72
2019-06-27T01:49:57.231Z,15.03
2019-06-27T01:52:26.248Z,15.90
2019-06-27T01:54:55.263Z,15.13
2019-06-27T01:57:24.295Z,15.75
2019-06-27T01:59:53.313Z,14.93
2019-06-27T02:02:22.342Z,15.45
2019-06-27T02:04:50.774Z,16.48
2019-06-27T02:07:19.799Z,15.40
2019-06-27T02:09:48.817Z,16.70
2019-06-27T02:12:17.864Z,15.93
2019-06-27T02:14:46.883Z,15.88
2019-06-27T02:17:15.342Z,15.95
2019-06-27T02:19:44.451Z,16.45
2019-06-27T02:22:13.485Z,16.15
2019-06-27T02:24:42.632Z,15.15
2019-06-27T02:27:11.655Z,15.70
2019-06-27T02:29:40.689Z,15.40
2019-06-27T02:32:09.723Z,15.48
2019-06-27T02:34:38.155Z,15.23
2019-06-27T02:37:07.206Z,16.25
2019-06-27T02:39:36.236Z,15.70
2019-06-27T02:42:05.331Z,15.35
2019-06-27T02:44:33.771Z,15.78
2019-06-27T02:47:02.803Z,16.90
2019-06-27T02:49:31.846Z,15.88
2019-06-27T02:52:00.882Z,16.50
2019-06-27T02:54:29.914Z,15.60
2019-06-27T02:56:59.195Z,16.75
2019-06-27T02:59:27.642Z,16.70
2019-06-27T03:01:56.663Z,15.38
2019-06-27T03:04:25.696Z,16.20
2019-06-27T03:06:54.709Z,15.75
2019-06-27T03:09:23.740Z,15.45
2019-06-27T03:11:53.366Z,15.15
2019-06-27T03:14:22.113Z,15.53
2019-06-27T03:16:51.521Z,15.35
2019-06-27T03:19:20.550Z,16.45
2019-06-27T03:21:49.596Z,15.20
2019-06-27T03:24:18.729Z,14.90
2019-06-27T03:26:47.835Z,15.25
2019-06-27T03:29:20.170Z,14.70
2019-06-27T03:31:48.057Z,15.55
2019-06-27T03:34:17.160Z,15.32
2019-06-27T03:36:46.457Z,13.62
2019-06-27T03:39:17.443Z,15.43
2019-06-27T03:41:46.766Z,14.98
2019-06-27T03:44:16.254Z,15.23
2019-06-27T03:49:49.744Z,13.90
2019-06-27T03:52:20.419Z,14.15
2019-06-27T03:54:50.688Z,13.48
2019-06-27T03:57:22.399Z,13.65
2019-06-27T03:59:54.460Z,14.80
2019-06-27T04:02:24.789Z,15.03
2019-06-27T04:04:54.575Z,13.28
2019-06-27T04:07:25.500Z,13.15
2019-06-27T04:09:55.180Z,14.15
2019-06-27T04:12:25.872Z,14.87
2019-06-27T04:14:58.431Z,14.63
2019-06-27T04:17:27.807Z,14.15
2019-06-27T04:19:59.120Z,14.05
2019-06-27T04:22:29.042Z,15.03
2019-06-27T04:24:59.915Z,14.45
2019-06-27T04:27:30.292Z,14.47
2019-06-27T04:30:01.375Z,13.88
2019-06-27T04:32:30.465Z,15.00
2019-06-27T04:35:00.524Z,14.05
2019-06-27T04:37:29.594Z,14.23
2019-06-27T04:39:58.044Z,13.30
2019-06-27T04:42:27.072Z,14.65
2019-06-27T04:44:56.107Z,15.53
2019-06-27T04:47:25.137Z,14.98
2019-06-27T04:49:54.164Z,15.78
2019-06-27T04:52:23.194Z,14.38
2019-06-27T04:54:52.507Z,15.03
2019-06-27T04:57:20.968Z,13.78
2019-06-27T04:59:53.866Z,14.33
2019-06-27T05:02:20.740Z,13.68
2019-06-27T05:04:49.783Z,15.93
2019-06-27T05:07:18.810Z,15.18
2019-06-27T05:09:48.022Z,14.95
2019-06-27T05:12:16.539Z,14.95
2019-06-27T05:14:45.591Z,15.58
2019-06-27T05:17:14.630Z,15.58
2019-06-27T05:19:43.758Z,14.63
2019-06-27T05:22:12.795Z,14.58
2019-06-27T05:24:41.251Z,13.78
2019-06-27T05:27:10.287Z,14.20
2019-06-27T05:29:39.336Z,14.10
2019-06-27T05:32:08.376Z,14.03
2019-06-27T05:34:37.447Z,14.18
2019-06-27T05:37:06.468Z,15.13
2019-06-27T05:39:34.930Z,15.13
2019-06-27T05:42:03.935Z,14.43
2019-06-27T05:44:32.978Z,14.23
2019-06-27T05:47:01.987Z,14.40
2019-06-27T05:49:31.028Z,13.58
2019-06-27T05:51:59.458Z,13.28
2019-06-27T05:54:28.577Z,13.30
2019-06-27T05:56:57.591Z,13.80
2019-06-27T05:59:26.627Z,13.93
2019-06-27T06:01:55.726Z,13.18
2019-06-27T06:04:24.792Z,14.10
2019-06-27T06:06:53.806Z,12.93
2019-06-27T06:09:22.240Z,13.98
2019-06-27T06:11:51.288Z,13.95
2019-06-27T06:14:20.296Z,13.88
2019-06-27T06:16:49.326Z,13.35
2019-06-27T06:19:18.368Z,13.00
2019-06-27T06:21:46.828Z,14.40
2019-06-27T06:24:15.856Z,13.95
2019-06-27T06:26:44.890Z,13.88
2019-06-27T06:29:13.912Z,14.00
2019-06-27T06:31:42.985Z,14.45
2019-06-27T06:34:12.003Z,14.63
2019-06-27T06:36:40.460Z,15.38
2019-06-27T06:39:09.469Z,14.18
2019-06-27T06:41:38.491Z,13.40
2019-06-27T06:44:07.523Z,14.53
2019-06-27T06:46:36.545Z,13.78
2019-06-27T06:49:05.570Z,15.10
2019-06-27T06:51:34.018Z,14.35
2019-06-27T06:54:03.039Z,13.43
2019-06-27T06:56:32.070Z,13.15
2019-06-27T06:59:01.086Z,13.98
2019-06-27T07:01:30.107Z,13.15
2019-06-27T07:03:59.121Z,13.85
2019-06-27T07:06:27.611Z,14.75
2019-06-27T07:08:57.193Z,13.72
2019-06-27T07:11:26.221Z,13.72
2019-06-27T07:13:55.261Z,14.28
2019-06-27T07:16:24.270Z,14.10
2019-06-27T07:18:53.297Z,13.65
2019-06-27T07:21:21.744Z,13.05
2019-06-27T07:23:50.750Z,13.62
2019-06-27T07:26:22.309Z,13.85
2019-06-27T07:28:50.520Z,14.20
2019-06-27T07:31:19.548Z,14.55
2019-06-27T07:33:48.075Z,14.30
2019-06-27T07:36:17.132Z,12.75
2019-06-27T07:38:47.224Z,13.45
2019-06-27T07:41:16.575Z,13.48
2019-06-27T07:43:45.587Z,13.30
2019-06-27T07:46:24.621Z,13.58
2019-06-27T07:48:44.794Z,12.73
2019-06-27T07:51:13.800Z,13.62
2019-06-27T07:53:42.903Z,14.10
2019-06-27T07:56:11.932Z,12.47
2019-06-27T07:58:41.043Z,13.20
2019-06-27T08:01:09.496Z,12.58
2019-06-27T08:03:38.531Z,12.40
2019-06-27T08:06:07.646Z,12.78
2019-06-27T08:08:36.796Z,12.37
2019-06-27T08:11:05.821Z,12.25
2019-06-27T08:13:34.268Z,13.15
2019-06-27T08:16:03.352Z,12.65
2019-06-27T08:18:32.392Z,13.65
2019-06-27T08:21:01.474Z,13.45
2019-06-27T08:23:40.942Z,12.80
2019-06-27T08:26:01.302Z,12.98
2019-06-27T08:28:29.755Z,12.75
2019-06-27T08:30:58.799Z,13.38
2019-06-27T08:33:27.897Z,13.40
2019-06-27T08:35:56.989Z,13.80
2019-06-27T08:38:26.010Z,13.72
2019-06-27T08:40:54.445Z,12.90
2019-06-27T08:43:23.477Z,13.20
2019-06-27T08:45:52.507Z,13.53
2019-06-27T08:48:21.545Z,13.08
2019-06-27T08:50:50.577Z,12.75
2019-06-27T08:53:19.620Z,13.53
2019-06-27T08:55:48.082Z,13.22
2019-06-27T08:58:17.108Z,13.20
2019-06-27T09:00:46.160Z,12.70
2019-06-27T09:03:15.246Z,12.03
2019-06-27T09:05:44.259Z,12.60
2019-06-27T09:08:12.719Z,12.75
2019-06-27T09:10:41.731Z,12.47
2019-06-27T09:13:10.770Z,13.08
2019-06-27T09:15:39.871Z,12.55
2019-06-27T09:18:08.913Z,13.03
2019-06-27T09:20:37.957Z,13.22
2019-06-27T09:23:06.401Z,12.53
2019-06-27T09:25:35.428Z,13.13
2019-06-27T09:28:04.464Z,13.72
2019-06-27T09:30:33.521Z,13.38
2019-06-27T09:33:02.579Z,13.05
2019-06-27T09:35:31.033Z,13.05
2019-06-27T09:38:00.079Z,13.30
2019-06-27T09:40:29.239Z,13.22
2019-06-27T09:42:58.282Z,13.43
2019-06-27T09:45:27.450Z,13.53
2019-06-27T09:47:55.884Z,13.58
2019-06-27T09:50:24.929Z,13.30
2019-06-27T09:52:53.938Z,12.98
2019-06-27T09:55:23.109Z,13.45
2019-06-27T09:57:52.129Z,13.68
2019-06-27T10:00:21.754Z,12.45
2019-06-27T10:02:50.208Z,12.37
2019-06-27T10:05:19.271Z,12.85
2019-06-27T10:07:48.296Z,13.50
2019-06-27T10:10:17.557Z,14.07
2019-06-27T10:12:46.633Z,13.43
2019-06-27T10:15:15.427Z,13.83
2019-06-27T10:17:44.440Z,14.23
2019-06-27T10:20:13.724Z,13.38
2019-06-27T10:22:42.811Z,12.65
2019-06-27T10:25:12.492Z,13.32
2019-06-27T10:27:41.515Z,13.68
2019-06-27T10:30:10.537Z,13.55
2019-06-27T10:32:39.646Z,12.68
2019-06-27T10:35:09.005Z,13.28
2019-06-27T10:37:38.043Z,13.43
2019-06-27T10:40:07.907Z,13.25
2019-06-27T10:42:36.349Z,12.50
2019-06-27T10:45:07.393Z,13.83
2019-06-27T10:47:36.404Z,12.73
2019-06-27T10:50:06.878Z,13.13
2019-06-27T10:52:35.288Z,13.20
2019-06-27T10:55:05.364Z,13.08
2019-06-27T10:57:34.403Z,13.32
2019-06-27T11:00:03.425Z,13.55
2019-06-27T11:02:32.421Z,12.63
2019-06-27T11:05:00.944Z,13.53
2019-06-27T11:07:29.963Z,13.08
2019-06-27T11:09:59.010Z,12.68
2019-06-27T11:12:28.015Z,13.08
2019-06-27T11:14:59.444Z,12.55
2019-06-27T11:17:27.846Z,13.13
2019-06-27T11:19:56.291Z,12.30
2019-06-27T11:22:25.386Z,12.18
2019-06-27T11:24:54.429Z,13.25
2019-06-27T11:27:27.172Z,13.75
2019-06-27T11:29:54.247Z,12.60
2019-06-27T11:32:22.677Z,13.22
2019-06-27T11:34:51.714Z,12.35
2019-06-27T11:37:20.725Z,12.05
2019-06-27T11:39:49.798Z,13.10
2019-06-27T11:42:18.867Z,12.90
2019-06-27T11:44:47.961Z,12.80
2019-06-27T11:47:16.459Z,12.25
2019-06-27T11:49:45.516Z,12.88
2019-06-27T11:52:14.528Z,12.75
2019-06-27T11:54:43.531Z,12.88
2019-06-27T11:57:12.553Z,13.30
2019-06-27T11:59:40.997Z,13.18
2019-06-27T12:02:10.044Z,12.88
2019-06-27T12:04:39.065Z,12.82
2019-06-27T12:07:08.114Z,12.33
2019-06-27T12:09:37.156Z,12.58
2019-06-27T12:12:06.218Z,13.13
2019-06-27T12:14:34.675Z,13.38
2019-06-27T12:17:03.700Z,12.47
2019-06-27T12:19:32.807Z,12.65
2019-06-27T12:22:01.911Z,13.10
2019-06-27T12:24:31.006Z,13.35
2019-06-27T12:26:59.483Z,13.43
2019-06-27T12:29:28.564Z,12.35
2019-06-27T12:31:57.608Z,13.48
2019-06-27T12:34:26.624Z,12.60
2019-06-27T12:36:55.661Z,12.58
2019-06-27T12:39:24.671Z,11.88
2019-06-27T12:41:53.124Z,12.07
2019-06-27T12:44:22.138Z,11.22
2019-06-27T12:46:52.177Z,11.70
2019-06-27T12:49:21.192Z,11.57
2019-06-27T12:51:50.255Z,11.90
2019-06-27T12:54:18.708Z,12.10
2019-06-27T12:56:47.769Z,11.20
2019-06-27T12:59:16.815Z,11.75
2019-06-27T13:01:45.846Z,11.68
2019-06-27T13:04:23.443Z,11.40
2019-06-27T13:06:45.612Z,10.35
2019-06-27T13:09:14.061Z,11.12
2019-06-27T13:11:43.637Z,10.95
2019-06-27T13:14:12.664Z,10.18
2019-06-27T13:16:41.798Z,10.93
2019-06-27T13:19:11.489Z,10.68
2019-06-27T13:21:40.058Z,10.05
2019-06-27T13:24:09.080Z,9.80
2019-06-27T13:26:38.096Z,10.30
2019-06-27T13:29:07.227Z,10.20
2019-06-27T13:31:36.264Z,9.95
2019-06-27T13:34:04.707Z,10.03
2019-06-27T13:36:33.742Z,10.15
2019-06-27T13:39:06.159Z,9.50
2019-06-27T13:41:33.503Z,9.15
2019-06-27T13:44:02.528Z,8.63
2019-06-27T13:46:31.606Z,7.75
2019-06-27T13:49:00.066Z,8.15
2019-06-27T13:51:29.103Z,7.47
2019-06-27T13:53:58.142Z,7.05
2019-06-27T13:56:27.147Z,7.00
2019-06-27T13:58:56.180Z,6.78
2019-06-27T14:01:28.886Z,6.33
2019-06-27T14:03:57.681Z,6.10
2019-06-27T14:06:26.686Z,6.25
2019-06-27T14:08:55.730Z,6.15
2019-06-27T14:11:24.792Z,6.17
2019-06-27T14:13:53.905Z,5.78
2019-06-27T14:16:22.340Z,5.30
2019-06-27T14:18:51.394Z,6.08
2019-06-27T14:21:20.406Z,5.53
2019-06-27T14:23:49.425Z,5.22
2019-06-27T14:26:18.447Z,5.30
2019-06-27T14:28:47.505Z,4.85
2019-06-27T14:31:15.947Z,4.65
2019-06-27T14:33:44.952Z,4.75
2019-06-27T14:36:13.958Z,4.40
2019-06-27T14:38:43.037Z,4.03
2019-06-27T14:41:12.053Z,4.45
2019-06-27T14:43:41.074Z,3.62
2019-06-27T14:46:09.493Z,3.90
2019-06-27T14:48:39.574Z,3.87
2019-06-27T14:51:08.572Z,4.53
2019-06-27T14:53:37.761Z,3.90
2019-06-27T14:56:06.860Z,4.05
2019-06-27T14:58:35.320Z,3.77
2019-06-27T15:01:08.547Z,3.80
2019-06-27T15:03:35.087Z,4.03
2019-06-27T15:06:04.110Z,3.37
2019-06-27T15:08:33.133Z,3.40
2019-06-27T15:11:02.230Z,3.98
2019-06-27T15:13:30.751Z,3.92
2019-06-27T15:16:11.208Z,3.52
2019-06-27T15:18:30.527Z,3.65
2019-06-27T15:20:59.543Z,3.40
2019-06-27T15:23:29.284Z,2.75
2019-06-27T15:25:57.834Z,3.40
2019-06-27T15:28:26.853Z,3.37
2019-06-27T15:30:55.868Z,3.47
2019-06-27T15:33:24.893Z,3.22
2019-06-27T15:35:53.927Z,2.98
2019-06-27T15:38:22.938Z,2.77
2019-06-27T15:40:54.478Z,2.85
2019-06-27T15:43:22.120Z,3.33
2019-06-27T15:45:51.154Z,3.12
2019-06-27T15:48:20.163Z,2.75
2019-06-27T15:50:49.762Z,2.62
2019-06-27T15:53:19.812Z,2.75
2019-06-27T15:55:48.870Z,2.75
2019-06-27T15:58:17.896Z,3.05
2019-06-27T16:00:46.927Z,2.80
2019-06-27T16:03:16.035Z,2.98
2019-06-27T16:05:45.054Z,2.80
2019-06-27T16:08:13.481Z,3.00
2019-06-27T16:10:42.502Z,2.70
2019-06-27T16:13:11.511Z,2.87
2019-06-27T16:15:40.543Z,2.50
2019-06-27T16:18:09.736Z,2.77
2019-06-27T16:20:38.253Z,2.40
2019-06-27T16:23:07.275Z,2.90
2019-06-27T16:25:36.331Z,2.30
2019-06-27T16:28:05.395Z,2.55
2019-06-27T16:30:34.420Z,2.77
2019-06-27T16:33:03.436Z,2.40
2019-06-27T16:35:31.897Z,2.80
2019-06-27T16:38:00.902Z,2.50
2019-06-27T16:40:29.923Z,2.50
2019-06-27T16:42:58.928Z,2.85
2019-06-27T16:45:27.967Z,3.05
2019-06-27T16:47:56.977Z,2.25
2019-06-27T16:50:25.460Z,2.35
2019-06-27T16:52:54.527Z,2.35
2019-06-27T16:55:23.738Z,2.60
2019-06-27T16:57:52.762Z,2.30
2019-06-27T17:00:22.326Z,2.35
2019-06-27T17:02:51.397Z,2.27
2019-06-27T17:05:48.030Z,2.40
2019-06-27T17:08:17.103Z,2.30
2019-06-27T17:10:46.138Z,2.20
2019-06-27T17:13:15.230Z,2.27
2019-06-27T17:15:44.270Z,2.52
2019-06-27T17:18:13.306Z,2.45
2019-06-27T17:20:42.341Z,2.00
2019-06-27T17:23:10.838Z,2.12
2019-06-27T17:25:39.961Z,2.37
2019-06-27T17:28:08.980Z,2.27
2019-06-27T17:30:38.075Z,2.20
2019-06-27T17:33:07.087Z,1.98
2019-06-27T17:35:36.159Z,1.72
2019-06-27T17:38:04.609Z,1.70
2019-06-27T17:40:33.610Z,1.98
2019-06-27T17:43:02.630Z,2.35
2019-06-27T17:45:31.654Z,2.20
2019-06-27T17:48:00.688Z,2.58
2019-06-27T17:50:29.195Z,2.22
2019-06-27T17:52:58.201Z,2.20
2019-06-27T17:55:27.215Z,2.30
2019-06-27T17:57:56.233Z,2.35
2019-06-27T18:00:25.395Z,2.17
2019-06-27T18:02:54.422Z,2.20
2019-06-27T18:05:22.865Z,2.10
2019-06-27T18:07:51.892Z,1.95
2019-06-27T18:10:21.307Z,2.15
2019-06-27T18:12:50.331Z,2.30
2019-06-27T18:15:19.339Z,2.10
2019-06-27T18:17:48.360Z,2.05
2019-06-27T18:20:16.799Z,2.30
2019-06-27T18:22:45.809Z,2.67
2019-06-27T18:25:14.901Z,2.08
2019-06-27T18:27:43.943Z,2.35
2019-06-27T18:30:13.389Z,1.85
2019-06-27T18:32:41.831Z,2.02
2019-06-27T18:35:11.170Z,2.25
2019-06-27T18:37:40.207Z,2.17
2019-06-27T18:40:10.273Z,1.90
2019-06-27T18:42:39.310Z,1.70
2019-06-27T18:45:08.664Z,1.80
2019-06-27T18:47:37.138Z,1.57
2019-06-27T18:50:07.859Z,1.50
2019-06-27T18:52:36.989Z,1.40
2019-06-27T18:55:07.173Z,1.30
2019-06-27T18:57:36.249Z,1.30
2019-06-27T19:00:07.702Z,1.85
2019-06-27T19:02:36.779Z,1.70
2019-06-27T19:05:07.032Z,1.27
2019-06-27T19:07:44.820Z,1.20
2019-06-27T19:10:10.680Z,1.45
2019-06-27T19:12:39.242Z,1.37
2019-06-27T19:15:09.015Z,1.12
2019-06-27T19:17:38.039Z,1.12
2019-06-27T19:20:26.416Z,1.27
2019-06-27T19:23:05.452Z,1.57
2019-06-27T19:25:35.529Z,1.50
2019-06-27T19:28:04.704Z,1.17
2019-06-27T19:30:33.720Z,1.40
2019-06-27T19:33:02.773Z,1.47
2019-06-27T19:35:31.834Z,1.20
2019-06-27T19:38:02.779Z,1.05
2019-06-27T19:40:31.588Z,1.12
2019-06-27T19:43:00.045Z,1.27
2019-06-27T19:45:29.135Z,1.22
2019-06-27T19:47:58.152Z,1.10
2019-06-27T19:50:27.152Z,1.40
2019-06-27T19:52:56.171Z,1.10
2019-06-27T19:55:24.680Z,1.00
2019-06-27T19:57:53.704Z,1.07
2019-06-27T20:00:22.705Z,1.20
2019-06-27T20:02:51.718Z,1.17
2019-06-27T20:05:20.729Z,1.20
2019-06-27T20:07:49.747Z,1.20
2019-06-27T20:10:18.317Z,1.90
2019-06-27T20:12:47.330Z,2.00
2019-06-27T20:15:17.963Z,1.10
2019-06-27T20:17:46.979Z,1.10
2019-06-27T20:20:16.132Z,1.27
2019-06-27T20:22:44.574Z,1.22
2019-06-27T20:25:13.842Z,0.80
2019-06-27T20:27:42.866Z,1.00
2019-06-27T20:30:12.516Z,1.52
2019-06-27T20:32:41.662Z,1.15
2019-06-27T20:35:10.155Z,1.10
2019-06-27T20:37:39.188Z,1.30
2019-06-27T20:40:09.788Z,1.00
2019-06-27T20:42:38.823Z,1.15
2019-06-27T20:45:08.927Z,1.37
2019-06-27T20:47:37.667Z,1.35
2019-06-27T20:50:07.976Z,1.47
2019-06-27T20:52:37.018Z,1.40
2019-06-27T20:55:06.755Z,1.30
2019-06-27T20:57:35.783Z,1.12
2019-06-27T21:00:06.466Z,1.07
2019-06-27T21:02:34.973Z,1.00
2019-06-27T21:05:04.093Z,1.27
2019-06-27T21:07:33.329Z,1.20
2019-06-27T21:10:02.427Z,1.30
2019-06-27T21:12:31.507Z,1.32
2019-06-27T21:15:00.224Z,1.45
2019-06-27T21:17:29.234Z,1.45
2019-06-27T21:19:58.279Z,1.05
2019-06-27T21:22:27.291Z,1.20
2019-06-27T21:24:56.405Z,1.27
2019-06-27T21:27:25.492Z,1.17
2019-06-27T21:29:53.936Z,1.15
2019-06-27T21:32:31.370Z,1.10
2019-06-27T21:34:53.686Z,1.10
2019-06-27T21:37:22.703Z,0.85
2019-06-27T21:39:51.783Z,1.30
2019-06-27T21:42:20.784Z,1.20
2019-06-27T21:44:49.244Z,1.12
2019-06-27T21:47:18.279Z,1.17
2019-06-27T21:49:47.292Z,1.20
2019-06-27T21:52:16.329Z,1.10
2019-06-27T21:54:45.348Z,1.35
2019-06-27T21:57:13.783Z,1.40
2019-06-27T21:59:42.792Z,1.37
2019-06-27T22:02:11.791Z,1.20
2019-06-27T22:04:40.807Z,1.10
2019-06-27T22:07:09.823Z,0.93
2019-06-27T22:09:38.828Z,0.90
2019-06-27T22:12:07.273Z,1.20
2019-06-27T22:14:36.354Z,1.30
2019-06-27T22:17:05.456Z,1.20
2019-06-27T22:19:34.465Z,1.20
2019-06-27T22:22:03.510Z,1.20
2019-06-27T22:24:31.952Z,1.30
2019-06-27T22:27:00.964Z,1.00
2019-06-27T22:29:29.969Z,1.37
2019-06-27T22:31:58.997Z,1.20
2019-06-27T22:34:28.080Z,1.20
2019-06-27T22:36:58.200Z,1.35
2019-06-27T22:39:44.930Z,1.30
2019-06-27T22:42:31.556Z,1.77
2019-06-27T22:45:18.132Z,1.12
2019-06-27T22:48:05.400Z,1.30
2019-06-27T22:50:50.755Z,0.95
2019-06-27T22:53:37.753Z,1.20
2019-06-27T22:56:06.767Z,1.30
2019-06-27T22:58:35.793Z,1.42
2019-06-27T23:01:06.170Z,0.98
2019-06-27T23:03:35.232Z,1.10
2019-06-27T23:06:03.784Z,1.10
2019-06-27T23:08:32.859Z,1.00
2019-06-27T23:11:01.862Z,1.37
2019-06-27T23:13:30.874Z,1.40
2019-06-27T23:15:59.927Z,1.12
2019-06-27T23:18:28.946Z,1.20
2019-06-27T23:20:57.395Z,1.30
2019-06-27T23:23:26.405Z,1.10
2019-06-27T23:25:55.446Z,1.10
2019-06-27T23:28:24.429Z,1.10
2019-06-27T23:30:53.470Z,1.45
2019-06-27T23:33:22.561Z,1.40
2019-06-27T23:35:50.984Z,1.30
2019-06-27T23:38:19.996Z,0.90
2019-06-27T23:40:49.014Z,1.27
2019-06-27T23:43:18.051Z,1.17
2019-06-27T23:45:47.385Z,1.37
2019-06-27T23:48:16.406Z,1.42
2019-06-27T23:50:44.842Z,1.17
2019-06-27T23:53:13.888Z,1.20
2019-06-27T23:55:42.972Z,1.17
2019-06-27T23:58:12.001Z,1.20
